createdAt,value
2018-11-21T00:00:00.208Z,1006.65
2018-11-21T00:00:26.344Z,1006.6
2018-11-21T00:00:52.472Z,1006.61
2018-11-21T00:01:18.602Z,1006.61
2018-11-21T00:01:44.727Z,1006.62
2018-11-21T00:02:10.858Z,1006.62
2018-11-21T00:02:37.016Z,1006.63
2018-11-21T00:03:03.143Z,1006.57
2018-11-21T00:03:29.334Z,1006.6
2018-11-21T00:03:55.455Z,1006.58
2018-11-21T00:04:21.587Z,1006.63
2018-11-21T00:04:47.736Z,1006.55
2018-11-21T00:05:13.885Z,1006.59
2018-11-21T00:05:40.039Z,1006.6
2018-11-21T00:06:06.192Z,1006.55
2018-11-21T00:06:32.315Z,1006.51
2018-11-21T00:06:58.458Z,1006.47
2018-11-21T00:07:24.583Z,1006.44
2018-11-21T00:07:50.709Z,1006.51
2018-11-21T00:08:16.869Z,1006.48
2018-11-21T00:08:43.000Z,1006.45
2018-11-21T00:09:09.130Z,1006.5
2018-11-21T00:09:35.255Z,1006.51
2018-11-21T00:10:01.387Z,1006.47
2018-11-21T00:10:27.523Z,1006.48
2018-11-21T00:10:53.657Z,1006.49
2018-11-21T00:11:19.784Z,1006.54
2018-11-21T00:11:45.914Z,1006.54
2018-11-21T00:12:12.050Z,1006.58
2018-11-21T00:12:38.175Z,1006.58
2018-11-21T00:13:04.303Z,1006.61
2018-11-21T00:13:30.457Z,1006.62
2018-11-21T00:13:56.589Z,1006.65
2018-11-21T00:14:22.720Z,1006.64
2018-11-21T00:14:48.856Z,1006.65
2018-11-21T00:15:14.984Z,1006.71
2018-11-21T00:15:41.112Z,1006.71
2018-11-21T00:16:07.242Z,1006.74
2018-11-21T00:16:33.375Z,1006.72
2018-11-21T00:16:59.507Z,1006.72
2018-11-21T00:17:25.631Z,1006.74
2018-11-21T00:17:51.762Z,1006.71
2018-11-21T00:18:17.912Z,1006.66
2018-11-21T00:18:44.070Z,1006.67
2018-11-21T00:19:10.194Z,1006.66
2018-11-21T00:19:36.351Z,1006.66
2018-11-21T00:20:02.493Z,1006.68
2018-11-21T00:20:28.623Z,1006.68
2018-11-21T00:20:54.751Z,1006.7
2018-11-21T00:21:20.903Z,1006.68
2018-11-21T00:21:47.031Z,1006.69
2018-11-21T00:22:13.169Z,1006.71
2018-11-21T00:22:39.321Z,1006.73
2018-11-21T00:23:05.474Z,1006.72
2018-11-21T00:23:31.636Z,1006.72
2018-11-21T00:23:57.762Z,1006.74
2018-11-21T00:24:23.913Z,1006.79
2018-11-21T00:24:50.045Z,1006.75
2018-11-21T00:25:16.169Z,1006.78
2018-11-21T00:25:42.304Z,1006.78
2018-11-21T00:26:08.431Z,1006.78
2018-11-21T00:26:34.562Z,1006.77
2018-11-21T00:27:00.703Z,1006.75
2018-11-21T00:27:26.833Z,1006.78
2018-11-21T00:27:52.964Z,1006.73
2018-11-21T00:28:19.118Z,1006.75
2018-11-21T00:28:45.248Z,1006.73
2018-11-21T00:29:11.375Z,1006.7
2018-11-21T00:29:37.503Z,1006.72
2018-11-21T00:30:03.635Z,1006.71
2018-11-21T00:30:29.768Z,1006.71
2018-11-21T00:30:55.916Z,1006.68
2018-11-21T00:31:22.058Z,1006.69
2018-11-21T00:31:48.192Z,1006.67
2018-11-21T00:32:14.317Z,1006.67
2018-11-21T00:32:40.452Z,1006.61
2018-11-21T00:33:06.587Z,1006.56
2018-11-21T00:33:32.737Z,1006.61
2018-11-21T00:33:58.862Z,1006.56
2018-11-21T00:34:24.990Z,1006.57
2018-11-21T00:34:51.121Z,1006.65
2018-11-21T00:35:17.258Z,1006.64
2018-11-21T00:35:43.392Z,1006.63
2018-11-21T00:36:09.517Z,1006.63
2018-11-21T00:36:35.651Z,1006.58
2018-11-21T00:37:01.806Z,1006.6
2018-11-21T00:37:27.963Z,1006.58
2018-11-21T00:37:54.094Z,1006.56
2018-11-21T00:38:20.226Z,1006.58
2018-11-21T00:38:46.351Z,1006.57
2018-11-21T00:39:12.484Z,1006.51
2018-11-21T00:39:38.612Z,1006.54
2018-11-21T00:40:04.744Z,1006.62
2018-11-21T00:40:30.896Z,1006.61
2018-11-21T00:40:57.068Z,1006.56
2018-11-21T00:41:23.199Z,1006.6
2018-11-21T00:41:49.328Z,1006.62
2018-11-21T00:42:15.463Z,1006.56
2018-11-21T00:42:46.582Z,1006.52
2018-11-21T00:43:07.740Z,1006.52
2018-11-21T00:43:33.875Z,1006.58
2018-11-21T00:43:59.997Z,1006.59
2018-11-21T00:44:26.157Z,1006.61
2018-11-21T00:44:52.285Z,1006.57
2018-11-21T00:45:18.409Z,1006.55
2018-11-21T00:45:44.540Z,1006.48
2018-11-21T00:46:10.670Z,1006.55
2018-11-21T00:46:36.808Z,1006.61
2018-11-21T00:47:02.940Z,1006.56
2018-11-21T00:47:29.069Z,1006.51
2018-11-21T00:47:55.201Z,1006.52
2018-11-21T00:48:21.328Z,1006.52
2018-11-21T00:48:47.467Z,1006.5
2018-11-21T00:49:13.590Z,1006.56
2018-11-21T00:49:39.747Z,1006.48
2018-11-21T00:50:05.878Z,1006.5
2018-11-21T00:50:32.215Z,1006.5
2018-11-21T00:50:58.335Z,1006.5
2018-11-21T00:51:24.468Z,1006.46
2018-11-21T00:51:50.601Z,1006.5
2018-11-21T00:52:16.724Z,1006.49
2018-11-21T00:52:42.861Z,1006.5
2018-11-21T00:53:09.013Z,1006.52
2018-11-21T00:53:35.148Z,1006.48
2018-11-21T00:54:01.282Z,1006.48
2018-11-21T00:54:27.428Z,1006.48
2018-11-21T00:54:53.633Z,1006.49
2018-11-21T00:55:19.762Z,1006.55
2018-11-21T00:55:45.899Z,1006.46
2018-11-21T00:56:12.027Z,1006.54
2018-11-21T00:56:38.161Z,1006.52
2018-11-21T00:57:05.347Z,1006.49
2018-11-21T00:57:31.505Z,1006.47
2018-11-21T00:57:57.633Z,1006.48
2018-11-21T00:58:23.915Z,1006.46
2018-11-21T00:58:50.026Z,1006.41
2018-11-21T00:59:16.155Z,1006.47
2018-11-21T00:59:42.284Z,1006.46
2018-11-21T01:00:08.445Z,1006.48
2018-11-21T01:00:34.572Z,1006.45
2018-11-21T01:01:00.699Z,1006.42
2018-11-21T01:01:26.861Z,1006.41
2018-11-21T01:01:52.991Z,1006.48
2018-11-21T01:02:19.121Z,1006.47
2018-11-21T01:02:45.245Z,1006.4
2018-11-21T01:03:11.431Z,1006.47
2018-11-21T01:03:37.558Z,1006.43
2018-11-21T01:04:03.707Z,1006.42
2018-11-21T01:04:29.828Z,1006.46
2018-11-21T01:04:55.962Z,1006.48
2018-11-21T01:05:22.102Z,1006.47
2018-11-21T01:05:48.233Z,1006.5
2018-11-21T01:06:14.359Z,1006.55
2018-11-21T01:06:40.500Z,1006.51
2018-11-21T01:07:06.652Z,1006.51
2018-11-21T01:07:32.777Z,1006.5
2018-11-21T01:07:58.916Z,1006.54
2018-11-21T01:08:25.040Z,1006.52
2018-11-21T01:08:51.173Z,1006.54
2018-11-21T01:09:17.303Z,1006.49
2018-11-21T01:09:43.438Z,1006.53
2018-11-21T01:10:09.564Z,1006.53
2018-11-21T01:10:35.693Z,1006.53
2018-11-21T01:11:01.820Z,1006.52
2018-11-21T01:11:27.960Z,1006.51
2018-11-21T01:11:54.085Z,1006.55
2018-11-21T01:12:20.217Z,1006.56
2018-11-21T01:12:46.343Z,1006.73
2018-11-21T01:13:12.476Z,1006.58
2018-11-21T01:13:38.610Z,1006.53
2018-11-21T01:14:04.743Z,1006.57
2018-11-21T01:14:30.877Z,1006.59
2018-11-21T01:14:57.005Z,1006.59
2018-11-21T01:15:23.137Z,1006.59
2018-11-21T01:15:49.265Z,1006.61
2018-11-21T01:16:15.393Z,1006.68
2018-11-21T01:16:41.552Z,1006.69
2018-11-21T01:17:07.678Z,1006.66
2018-11-21T01:17:33.818Z,1006.67
2018-11-21T01:17:59.947Z,1006.68
2018-11-21T01:18:26.076Z,1006.7
2018-11-21T01:18:52.209Z,1006.69
2018-11-21T01:19:18.342Z,1006.75
2018-11-21T01:19:44.468Z,1006.71
2018-11-21T01:20:10.592Z,1006.75
2018-11-21T01:20:36.724Z,1006.78
2018-11-21T01:21:02.856Z,1006.75
2018-11-21T01:21:29.014Z,1006.75
2018-11-21T01:21:55.142Z,1006.76
2018-11-21T01:22:21.275Z,1006.76
2018-11-21T01:22:47.432Z,1006.82
2018-11-21T01:23:13.563Z,1006.78
2018-11-21T01:23:39.693Z,1006.79
2018-11-21T01:24:05.836Z,1006.79
2018-11-21T01:24:31.970Z,1006.84
2018-11-21T01:24:58.100Z,1006.86
2018-11-21T01:25:24.230Z,1006.81
2018-11-21T01:25:50.381Z,1006.82
2018-11-21T01:26:16.513Z,1006.82
2018-11-21T01:26:42.638Z,1006.89
2018-11-21T01:27:08.761Z,1006.85
2018-11-21T01:27:34.894Z,1006.87
2018-11-21T01:28:01.033Z,1006.88
2018-11-21T01:28:27.179Z,1006.89
2018-11-21T01:28:53.304Z,1006.95
2018-11-21T01:29:19.435Z,1006.96
2018-11-21T01:29:45.589Z,1006.94
2018-11-21T01:30:11.742Z,1006.95
2018-11-21T01:30:37.880Z,1006.94
2018-11-21T01:31:03.998Z,1006.93
2018-11-21T01:31:30.131Z,1006.94
2018-11-21T01:31:56.257Z,1006.99
2018-11-21T01:32:22.389Z,1006.96
2018-11-21T01:32:48.508Z,1007
2018-11-21T01:33:14.671Z,1006.92
2018-11-21T01:33:40.808Z,1006.93
2018-11-21T01:34:06.950Z,1006.92
2018-11-21T01:34:33.106Z,1006.97
2018-11-21T01:34:59.258Z,1006.96
2018-11-21T01:35:25.428Z,1007.01
2018-11-21T01:35:51.568Z,1007.02
2018-11-21T01:36:17.702Z,1006.97
2018-11-21T01:36:43.825Z,1007.02
2018-11-21T01:37:09.962Z,1006.99
2018-11-21T01:37:36.090Z,1007.04
2018-11-21T01:38:02.223Z,1007.07
2018-11-21T01:38:28.350Z,1007.12
2018-11-21T01:38:54.484Z,1007.11
2018-11-21T01:39:20.634Z,1007.13
2018-11-21T01:39:46.767Z,1007.1
2018-11-21T01:40:12.898Z,1007.16
2018-11-21T01:40:39.029Z,1007.14
2018-11-21T01:41:05.183Z,1007.08
2018-11-21T01:41:31.308Z,1007.11
2018-11-21T01:41:57.440Z,1007.11
2018-11-21T01:42:23.593Z,1007.08
2018-11-21T01:42:49.736Z,1007.12
2018-11-21T01:43:15.887Z,1007.07
2018-11-21T01:43:42.023Z,1007.07
2018-11-21T01:44:08.147Z,1007.03
2018-11-21T01:44:34.284Z,1007
2018-11-21T01:45:00.418Z,1007.01
2018-11-21T01:45:26.552Z,1006.97
2018-11-21T01:45:52.680Z,1007.07
2018-11-21T01:46:18.834Z,1007
2018-11-21T01:46:44.962Z,1007.03
2018-11-21T01:47:11.094Z,1006.99
2018-11-21T01:47:37.220Z,1007.01
2018-11-21T01:48:03.359Z,1007.06
2018-11-21T01:48:29.507Z,1007.03
2018-11-21T01:48:55.634Z,1007.07
2018-11-21T01:49:21.768Z,1007.07
2018-11-21T01:49:47.943Z,1007.04
2018-11-21T01:50:14.102Z,1007.04
2018-11-21T01:50:40.236Z,1007.07
2018-11-21T01:51:06.364Z,1007.05
2018-11-21T01:51:32.495Z,1007.11
2018-11-21T01:51:58.652Z,1007.07
2018-11-21T01:52:24.783Z,1007.11
2018-11-21T01:52:50.918Z,1007.09
2018-11-21T01:53:17.045Z,1007.09
2018-11-21T01:53:43.181Z,1007.12
2018-11-21T01:54:09.308Z,1007.12
2018-11-21T01:54:35.439Z,1007.13
2018-11-21T01:55:01.574Z,1007.15
2018-11-21T01:55:27.701Z,1007.14
2018-11-21T01:55:53.830Z,1007.13
2018-11-21T01:56:19.958Z,1007.13
2018-11-21T01:56:46.085Z,1007.16
2018-11-21T01:57:12.245Z,1007.11
2018-11-21T01:57:38.373Z,1007.08
2018-11-21T01:58:04.509Z,1007.06
2018-11-21T01:58:30.662Z,1007.14
2018-11-21T01:58:56.791Z,1007.09
2018-11-21T01:59:22.935Z,1007.11
2018-11-21T01:59:49.095Z,1007.16
2018-11-21T02:00:15.222Z,1007.16
2018-11-21T02:00:41.358Z,1007.13
2018-11-21T02:01:07.490Z,1007.15
2018-11-21T02:01:33.646Z,1007.15
2018-11-21T02:01:59.778Z,1007.19
2018-11-21T02:02:25.909Z,1007.11
2018-11-21T02:02:52.036Z,1007.11
2018-11-21T02:03:18.168Z,1007.1
2018-11-21T02:03:44.321Z,1007.14
2018-11-21T02:04:10.499Z,1007.03
2018-11-21T02:04:36.662Z,1007.08
2018-11-21T02:05:02.764Z,1007.04
2018-11-21T02:05:28.891Z,1007.12
2018-11-21T02:05:55.018Z,1007.05
2018-11-21T02:06:21.150Z,1007.1
2018-11-21T02:06:47.297Z,1007.09
2018-11-21T02:07:13.428Z,1007.11
2018-11-21T02:07:39.555Z,1007.12
2018-11-21T02:08:05.708Z,1007.11
2018-11-21T02:08:31.871Z,1007.08
2018-11-21T02:08:58.005Z,1007.1
2018-11-21T02:09:24.160Z,1007.09
2018-11-21T02:09:50.313Z,1007.1
2018-11-21T02:10:16.442Z,1007.11
2018-11-21T02:10:42.572Z,1007.07
2018-11-21T02:11:08.704Z,1007.06
2018-11-21T02:11:34.853Z,1007.09
2018-11-21T02:12:01.013Z,1007.09
2018-11-21T02:12:27.143Z,1007.1
2018-11-21T02:12:53.273Z,1007.04
2018-11-21T02:13:19.405Z,1007.09
2018-11-21T02:13:45.537Z,1007.07
2018-11-21T02:14:11.660Z,1007.09
2018-11-21T02:14:37.791Z,1007.1
2018-11-21T02:15:03.929Z,1007.09
2018-11-21T02:15:30.079Z,1007.17
2018-11-21T02:15:56.229Z,1007.13
2018-11-21T02:16:22.383Z,1007.15
2018-11-21T02:16:48.557Z,1007.11
2018-11-21T02:17:14.694Z,1007.1
2018-11-21T02:17:40.845Z,1007.14
2018-11-21T02:18:06.976Z,1007.17
2018-11-21T02:18:33.128Z,1007.14
2018-11-21T02:18:59.258Z,1007.2
2018-11-21T02:19:25.391Z,1007.19
2018-11-21T02:19:51.546Z,1007.19
2018-11-21T02:20:17.723Z,1007.23
2018-11-21T02:20:43.857Z,1007.21
2018-11-21T02:21:09.982Z,1007.24
2018-11-21T02:21:36.116Z,1007.23
2018-11-21T02:22:02.246Z,1007.19
2018-11-21T02:22:28.402Z,1007.24
2018-11-21T02:22:54.532Z,1007.24
2018-11-21T02:23:20.662Z,1007.22
2018-11-21T02:23:46.796Z,1007.27
2018-11-21T02:24:12.925Z,1007.25
2018-11-21T02:24:39.051Z,1007.23
2018-11-21T02:25:05.182Z,1007.19
2018-11-21T02:25:31.323Z,1007.26
2018-11-21T02:25:57.452Z,1007.26
2018-11-21T02:26:23.578Z,1007.23
2018-11-21T02:26:49.725Z,1007.26
2018-11-21T02:27:15.876Z,1007.24
2018-11-21T02:27:42.005Z,1007.25
2018-11-21T02:28:08.140Z,1007.22
2018-11-21T02:28:34.293Z,1007.25
2018-11-21T02:29:00.424Z,1007.22
2018-11-21T02:29:26.553Z,1007.21
2018-11-21T02:29:52.693Z,1007.31
2018-11-21T02:30:18.887Z,1007.28
2018-11-21T02:30:45.028Z,1007.31
2018-11-21T02:31:11.214Z,1007.36
2018-11-21T02:31:37.369Z,1007.34
2018-11-21T02:32:03.524Z,1007.34
2018-11-21T02:32:29.651Z,1007.38
2018-11-21T02:32:55.806Z,1007.33
2018-11-21T02:33:21.939Z,1007.36
2018-11-21T02:33:48.070Z,1007.4
2018-11-21T02:34:14.222Z,1007.36
2018-11-21T02:34:40.355Z,1007.34
2018-11-21T02:35:06.504Z,1007.31
2018-11-21T02:35:32.660Z,1007.37
2018-11-21T02:35:58.869Z,1007.36
2018-11-21T02:36:25.020Z,1007.34
2018-11-21T02:36:51.155Z,1007.35
2018-11-21T02:37:17.310Z,1007.4
2018-11-21T02:37:43.466Z,1007.39
2018-11-21T02:38:09.626Z,1007.44
2018-11-21T02:38:35.756Z,1007.42
2018-11-21T02:39:01.904Z,1007.46
2018-11-21T02:39:28.044Z,1007.48
2018-11-21T02:39:54.169Z,1007.49
2018-11-21T02:40:20.302Z,1007.48
2018-11-21T02:40:46.436Z,1007.46
2018-11-21T02:41:12.644Z,1007.41
2018-11-21T02:41:38.795Z,1007.4
2018-11-21T02:42:04.959Z,1007.41
2018-11-21T02:42:31.130Z,1007.39
2018-11-21T02:42:57.265Z,1007.4
2018-11-21T02:43:23.421Z,1007.34
2018-11-21T02:43:49.572Z,1007.38
2018-11-21T02:44:15.725Z,1007.36
2018-11-21T02:44:41.870Z,1007.41
2018-11-21T02:45:08.046Z,1007.42
2018-11-21T02:45:34.203Z,1007.44
2018-11-21T02:46:00.337Z,1007.4
2018-11-21T02:46:26.485Z,1007.38
2018-11-21T02:46:52.634Z,1007.37
2018-11-21T02:47:18.765Z,1007.4
2018-11-21T02:47:44.896Z,1007.37
2018-11-21T02:48:11.053Z,1007.36
2018-11-21T02:48:37.178Z,1007.36
2018-11-21T02:49:03.311Z,1007.36
2018-11-21T02:49:29.440Z,1007.35
2018-11-21T02:49:55.621Z,1007.32
2018-11-21T02:50:21.766Z,1007.32
2018-11-21T02:50:47.895Z,1007.3
2018-11-21T02:51:14.074Z,1007.31
2018-11-21T02:51:40.214Z,1007.29
2018-11-21T02:52:06.368Z,1007.29
2018-11-21T02:52:32.500Z,1007.3
2018-11-21T02:52:58.634Z,1007.31
2018-11-21T02:53:24.764Z,1007.31
2018-11-21T02:53:50.935Z,1007.31
2018-11-21T02:54:17.121Z,1007.28
2018-11-21T02:54:43.277Z,1007.26
2018-11-21T02:55:09.454Z,1007.27
2018-11-21T02:55:35.658Z,1007.28
2018-11-21T02:56:01.809Z,1007.29
2018-11-21T02:56:27.943Z,1007.29
2018-11-21T02:56:54.150Z,1007.31
2018-11-21T02:57:20.297Z,1007.32
2018-11-21T02:57:46.475Z,1007.31
2018-11-21T02:58:12.607Z,1007.35
2018-11-21T02:58:38.741Z,1007.37
2018-11-21T02:59:04.889Z,1007.4
2018-11-21T02:59:31.075Z,1007.36
2018-11-21T02:59:57.244Z,1007.39
2018-11-21T03:00:23.404Z,1007.37
2018-11-21T03:00:49.574Z,1007.36
2018-11-21T03:01:15.757Z,1007.32
2018-11-21T03:01:41.912Z,1007.38
2018-11-21T03:02:08.060Z,1007.38
2018-11-21T03:02:34.235Z,1007.37
2018-11-21T03:03:00.368Z,1007.39
2018-11-21T03:03:26.496Z,1007.38
2018-11-21T03:03:52.622Z,1007.35
2018-11-21T03:04:18.752Z,1007.33
2018-11-21T03:04:44.907Z,1007.37
2018-11-21T03:05:11.055Z,1007.35
2018-11-21T03:05:37.180Z,1007.3
2018-11-21T03:06:03.373Z,1007.32
2018-11-21T03:06:29.521Z,1007.33
2018-11-21T03:06:55.696Z,1007.31
2018-11-21T03:07:21.827Z,1007.31
2018-11-21T03:07:47.959Z,1007.31
2018-11-21T03:08:14.096Z,1007.3
2018-11-21T03:08:40.228Z,1007.29
2018-11-21T03:09:06.408Z,1007.26
2018-11-21T03:09:32.534Z,1007.23
2018-11-21T03:09:58.706Z,1007.27
2018-11-21T03:10:24.837Z,1007.27
2018-11-21T03:10:50.997Z,1007.2
2018-11-21T03:11:17.188Z,1007.29
2018-11-21T03:11:43.344Z,1007.29
2018-11-21T03:12:09.494Z,1007.29
2018-11-21T03:12:35.642Z,1007.32
2018-11-21T03:13:01.802Z,1007.29
2018-11-21T03:13:28.581Z,1007.25
2018-11-21T03:13:54.072Z,1007.29
2018-11-21T03:14:20.200Z,1007.23
2018-11-21T03:14:46.336Z,1007.27
2018-11-21T03:15:12.483Z,1007.29
2018-11-21T03:15:38.663Z,1007.29
2018-11-21T03:16:04.787Z,1007.22
2018-11-21T03:16:30.950Z,1007.26
2018-11-21T03:16:57.076Z,1007.23
2018-11-21T03:17:23.238Z,1007.25
2018-11-21T03:17:49.406Z,1007.27
2018-11-21T03:18:15.526Z,1007.27
2018-11-21T03:18:41.648Z,1007.24
2018-11-21T03:19:07.805Z,1007.26
2018-11-21T03:19:33.939Z,1007.25
2018-11-21T03:20:00.080Z,1007.31
2018-11-21T03:20:26.213Z,1007.27
2018-11-21T03:20:52.385Z,1007.21
2018-11-21T03:21:18.514Z,1007.26
2018-11-21T03:21:44.644Z,1007.28
2018-11-21T03:22:10.780Z,1007.27
2018-11-21T03:22:36.926Z,1007.24
2018-11-21T03:23:03.063Z,1007.2
2018-11-21T03:23:29.234Z,1007.23
2018-11-21T03:23:55.414Z,1007.25
2018-11-21T03:24:21.581Z,1007.25
2018-11-21T03:24:47.786Z,1007.28
2018-11-21T03:25:13.939Z,1007.29
2018-11-21T03:25:40.126Z,1007.23
2018-11-21T03:26:06.253Z,1007.26
2018-11-21T03:26:32.418Z,1007.33
2018-11-21T03:26:58.550Z,1007.29
2018-11-21T03:27:24.710Z,1007.33
2018-11-21T03:27:50.834Z,1007.31
2018-11-21T03:28:16.966Z,1007.33
2018-11-21T03:28:43.134Z,1007.35
2018-11-21T03:29:09.256Z,1007.38
2018-11-21T03:29:35.409Z,1007.36
2018-11-21T03:30:01.621Z,1007.41
2018-11-21T03:30:27.788Z,1007.43
2018-11-21T03:30:53.992Z,1007.43
2018-11-21T03:31:20.168Z,1007.43
2018-11-21T03:31:46.362Z,1007.43
2018-11-21T03:32:12.574Z,1007.42
2018-11-21T03:32:38.817Z,1007.44
2018-11-21T03:33:04.961Z,1007.48
2018-11-21T03:33:31.089Z,1007.43
2018-11-21T03:33:57.757Z,1007.48
2018-11-21T03:34:23.382Z,1007.43
2018-11-21T03:34:49.513Z,1007.44
2018-11-21T03:35:15.668Z,1007.48
2018-11-21T03:35:41.866Z,1007.48
2018-11-21T03:36:08.033Z,1007.44
2018-11-21T03:36:34.166Z,1007.47
2018-11-21T03:37:00.321Z,1007.5
2018-11-21T03:37:26.452Z,1007.49
2018-11-21T03:37:52.604Z,1007.51
2018-11-21T03:38:18.762Z,1007.55
2018-11-21T03:38:44.933Z,1007.48
2018-11-21T03:39:11.099Z,1007.48
2018-11-21T03:39:37.260Z,1007.49
2018-11-21T03:40:03.391Z,1007.54
2018-11-21T03:40:29.553Z,1007.56
2018-11-21T03:40:55.685Z,1007.53
2018-11-21T03:41:21.881Z,1007.56
2018-11-21T03:41:48.061Z,1007.53
2018-11-21T03:42:14.239Z,1007.56
2018-11-21T03:42:40.369Z,1007.56
2018-11-21T03:43:06.552Z,1007.54
2018-11-21T03:43:32.698Z,1007.54
2018-11-21T03:43:58.830Z,1007.56
2018-11-21T03:44:24.985Z,1007.55
2018-11-21T03:44:51.143Z,1007.58
2018-11-21T03:45:17.274Z,1007.56
2018-11-21T03:45:43.435Z,1007.61
2018-11-21T03:46:09.615Z,1007.63
2018-11-21T03:46:35.767Z,1007.59
2018-11-21T03:47:01.896Z,1007.6
2018-11-21T03:47:28.060Z,1007.66
2018-11-21T03:47:54.190Z,1007.72
2018-11-21T03:48:20.386Z,1007.72
2018-11-21T03:48:46.550Z,1007.68
2018-11-21T03:49:12.675Z,1007.74
2018-11-21T03:49:38.827Z,1007.7
2018-11-21T03:50:05.016Z,1007.68
2018-11-21T03:50:31.118Z,1007.66
2018-11-21T03:50:57.266Z,1007.7
2018-11-21T03:51:23.423Z,1007.7
2018-11-21T03:51:49.555Z,1007.72
2018-11-21T03:52:15.682Z,1007.74
2018-11-21T03:52:41.832Z,1007.76
2018-11-21T03:53:07.966Z,1007.8
2018-11-21T03:53:34.124Z,1007.78
2018-11-21T03:54:00.277Z,1007.84
2018-11-21T03:54:26.429Z,1007.86
2018-11-21T03:54:52.590Z,1007.86
2018-11-21T03:55:18.744Z,1007.88
2018-11-21T03:55:44.954Z,1007.86
2018-11-21T03:56:11.129Z,1007.89
2018-11-21T03:56:37.288Z,1007.86
2018-11-21T03:57:03.443Z,1007.84
2018-11-21T03:57:29.629Z,1007.85
2018-11-21T03:57:55.773Z,1007.84
2018-11-21T03:58:21.909Z,1007.82
2018-11-21T03:58:48.067Z,1007.86
2018-11-21T03:59:14.245Z,1007.83
2018-11-21T03:59:40.398Z,1007.84
2018-11-21T04:00:06.553Z,1007.87
2018-11-21T04:00:32.709Z,1007.85
2018-11-21T04:00:58.836Z,1007.83
2018-11-21T04:01:24.972Z,1007.93
2018-11-21T04:01:51.168Z,1007.86
2018-11-21T04:02:17.328Z,1007.87
2018-11-21T04:02:43.482Z,1007.93
2018-11-21T04:03:09.613Z,1007.92
2018-11-21T04:03:35.749Z,1007.91
2018-11-21T04:04:01.898Z,1007.94
2018-11-21T04:04:28.103Z,1007.99
2018-11-21T04:04:54.256Z,1008
2018-11-21T04:05:20.437Z,1008.03
2018-11-21T04:05:46.565Z,1008.02
2018-11-21T04:06:12.694Z,1008.07
2018-11-21T04:06:38.840Z,1008.07
2018-11-21T04:07:04.986Z,1008.11
2018-11-21T04:07:31.111Z,1008.09
2018-11-21T04:07:57.237Z,1008.08
2018-11-21T04:08:23.422Z,1008.07
2018-11-21T04:08:49.566Z,1008.05
2018-11-21T04:09:15.718Z,1008.02
2018-11-21T04:09:41.874Z,1008.03
2018-11-21T04:10:08.003Z,1008.02
2018-11-21T04:10:34.129Z,1007.95
2018-11-21T04:11:00.291Z,1007.96
2018-11-21T04:11:26.454Z,1007.93
2018-11-21T04:11:52.652Z,1007.86
2018-11-21T04:12:18.786Z,1007.93
2018-11-21T04:12:44.917Z,1007.9
2018-11-21T04:13:11.040Z,1007.86
2018-11-21T04:13:37.195Z,1007.87
2018-11-21T04:14:03.327Z,1007.91
2018-11-21T04:14:29.464Z,1007.85
2018-11-21T04:14:55.618Z,1007.89
2018-11-21T04:15:21.766Z,1007.93
2018-11-21T04:15:47.899Z,1007.94
2018-11-21T04:16:14.107Z,1007.96
2018-11-21T04:16:40.238Z,1007.93
2018-11-21T04:17:06.393Z,1007.97
2018-11-21T04:17:32.586Z,1008.04
2018-11-21T04:17:58.706Z,1008.03
2018-11-21T04:18:24.897Z,1008.1
2018-11-21T04:18:51.029Z,1008.06
2018-11-21T04:19:17.185Z,1008.12
2018-11-21T04:19:43.318Z,1008.18
2018-11-21T04:20:09.498Z,1008.18
2018-11-21T04:20:35.647Z,1008.11
2018-11-21T04:21:01.788Z,1008.14
2018-11-21T04:21:27.964Z,1008.11
2018-11-21T04:21:54.132Z,1008.12
2018-11-21T04:22:20.276Z,1008.14
2018-11-21T04:22:46.438Z,1008.17
2018-11-21T04:23:12.570Z,1008.14
2018-11-21T04:23:38.699Z,1008.1
2018-11-21T04:24:04.826Z,1008.1
2018-11-21T04:24:30.982Z,1008.08
2018-11-21T04:24:57.145Z,1008.16
2018-11-21T04:25:23.275Z,1008.13
2018-11-21T04:25:49.422Z,1008.11
2018-11-21T04:26:15.557Z,1008.13
2018-11-21T04:26:41.684Z,1008.25
2018-11-21T04:27:07.840Z,1008.17
2018-11-21T04:27:33.967Z,1008.16
2018-11-21T04:28:00.101Z,1008.22
2018-11-21T04:28:26.231Z,1008.22
2018-11-21T04:28:52.366Z,1008.27
2018-11-21T04:29:18.489Z,1008.26
2018-11-21T04:29:44.709Z,1008.31
2018-11-21T04:30:10.863Z,1008.26
2018-11-21T04:30:37.072Z,1008.26
2018-11-21T04:31:03.276Z,1008.27
2018-11-21T04:31:29.421Z,1008.28
2018-11-21T04:31:55.548Z,1008.24
2018-11-21T04:32:21.717Z,1008.26
2018-11-21T04:32:47.883Z,1008.27
2018-11-21T04:33:14.059Z,1008.26
2018-11-21T04:33:40.225Z,1008.25
2018-11-21T04:34:06.383Z,1008.27
2018-11-21T04:34:32.536Z,1008.25
2018-11-21T04:34:58.663Z,1008.25
2018-11-21T04:35:24.829Z,1008.25
2018-11-21T04:35:50.969Z,1008.28
2018-11-21T04:36:17.118Z,1008.3
2018-11-21T04:36:43.300Z,1008.3
2018-11-21T04:37:09.428Z,1008.32
2018-11-21T04:37:35.560Z,1008.34
2018-11-21T04:38:01.697Z,1008.36
2018-11-21T04:38:27.828Z,1008.4
2018-11-21T04:38:53.987Z,1008.41
2018-11-21T04:39:20.148Z,1008.46
2018-11-21T04:39:46.282Z,1008.49
2018-11-21T04:40:12.435Z,1008.51
2018-11-21T04:40:38.596Z,1008.58
2018-11-21T04:41:04.769Z,1008.59
2018-11-21T04:41:30.919Z,1008.56
2018-11-21T04:41:57.072Z,1008.63
2018-11-21T04:42:23.269Z,1008.64
2018-11-21T04:42:49.403Z,1008.69
2018-11-21T04:43:15.529Z,1008.66
2018-11-21T04:43:41.692Z,1008.66
2018-11-21T04:44:07.865Z,1008.71
2018-11-21T04:44:34.035Z,1008.68
2018-11-21T04:45:00.192Z,1008.63
2018-11-21T04:45:26.322Z,1008.64
2018-11-21T04:45:52.543Z,1008.62
2018-11-21T04:46:18.731Z,1008.63
2018-11-21T04:46:44.884Z,1008.59
2018-11-21T04:47:11.017Z,1008.61
2018-11-21T04:47:37.154Z,1008.59
2018-11-21T04:48:03.285Z,1008.63
2018-11-21T04:48:29.412Z,1008.61
2018-11-21T04:48:55.544Z,1008.59
2018-11-21T04:49:21.692Z,1008.67
2018-11-21T04:49:47.827Z,1008.61
2018-11-21T04:50:14.018Z,1008.66
2018-11-21T04:50:40.168Z,1008.65
2018-11-21T04:51:06.302Z,1008.65
2018-11-21T04:51:32.433Z,1008.63
2018-11-21T04:51:58.560Z,1008.62
2018-11-21T04:52:24.712Z,1008.63
2018-11-21T04:52:50.845Z,1008.61
2018-11-21T04:53:16.975Z,1008.61
2018-11-21T04:53:43.137Z,1008.58
2018-11-21T04:54:09.301Z,1008.61
2018-11-21T04:54:35.482Z,1008.62
2018-11-21T04:55:01.657Z,1008.59
2018-11-21T04:55:27.831Z,1008.57
2018-11-21T04:55:53.958Z,1008.6
2018-11-21T04:56:20.137Z,1008.59
2018-11-21T04:56:46.294Z,1008.61
2018-11-21T04:57:12.427Z,1008.61
2018-11-21T04:57:38.558Z,1008.62
2018-11-21T04:58:04.708Z,1008.63
2018-11-21T04:58:30.848Z,1008.64
2018-11-21T04:58:56.977Z,1008.67
2018-11-21T04:59:23.112Z,1008.67
2018-11-21T04:59:49.258Z,1008.66
2018-11-21T05:00:15.387Z,1008.71
2018-11-21T05:00:41.542Z,1008.68
2018-11-21T05:01:07.671Z,1008.72
2018-11-21T05:01:33.808Z,1008.68
2018-11-21T05:01:59.963Z,1008.73
2018-11-21T05:02:26.109Z,1008.68
2018-11-21T05:02:52.239Z,1008.68
2018-11-21T05:03:18.371Z,1008.67
2018-11-21T05:03:44.516Z,1008.67
2018-11-21T05:04:10.669Z,1008.64
2018-11-21T05:04:36.831Z,1008.68
2018-11-21T05:05:02.957Z,1008.64
2018-11-21T05:05:29.094Z,1008.66
2018-11-21T05:05:55.229Z,1008.64
2018-11-21T05:06:21.359Z,1008.62
2018-11-21T05:06:47.489Z,1008.62
2018-11-21T05:07:13.650Z,1008.67
2018-11-21T05:07:39.771Z,1008.65
2018-11-21T05:08:05.911Z,1008.61
2018-11-21T05:08:32.039Z,1008.65
2018-11-21T05:08:58.196Z,1008.63
2018-11-21T05:09:24.324Z,1008.69
2018-11-21T05:09:50.453Z,1008.68
2018-11-21T05:10:16.628Z,1008.66
2018-11-21T05:10:42.763Z,1008.64
2018-11-21T05:11:08.931Z,1008.72
2018-11-21T05:11:35.064Z,1008.7
2018-11-21T05:12:01.214Z,1008.71
2018-11-21T05:12:27.369Z,1008.71
2018-11-21T05:12:53.558Z,1008.77
2018-11-21T05:13:19.631Z,1008.77
2018-11-21T05:13:45.759Z,1008.79
2018-11-21T05:14:11.886Z,1008.73
2018-11-21T05:14:38.050Z,1008.8
2018-11-21T05:15:04.195Z,1008.75
2018-11-21T05:15:30.361Z,1008.74
2018-11-21T05:15:56.537Z,1008.78
2018-11-21T05:16:22.691Z,1008.75
2018-11-21T05:16:48.872Z,1008.83